Time;durP1;ratioP1;P1;durP2;ratioP2;P2;SDS_P1;SDS_P2;PMS_P1;PMS_P2;Temp;Humidity;BMP_temperature;BMP_pressure;BME280_temperature;BME280_humidity;BME280_pressure;Samples;Min_cycle;Max_cycle;Signal;HPM_P1;HPM_P2
2023/08/18 00:00:38;;;;;;;0.00;0.00;;;;;;;;;;1727248;28;20251;-80
2023/08/18 00:01:29;;;;;;;0.00;0.00;;;;;;;;;;1726522;28;20298;-80
2023/08/18 00:02:20;;;;;;;0.00;0.00;;;;;;;;;;1728712;28;20204;-80
2023/08/18 00:03:12;;;;;;;0.00;0.00;;;;;;;;;;1728167;28;20214;-80
2023/08/18 00:04:04;;;;;;;0.00;0.00;;;;;;;;;;1728276;28;20293;-80
2023/08/18 00:04:55;;;;;;;0.00;0.00;;;;;;;;;;1729102;28;20206;-79
2023/08/18 00:05:47;;;;;;;0.00;0.00;;;;;;;;;;1727840;28;20242;-80
2023/08/18 00:06:38;;;;;;;0.00;0.00;;;;;;;;;;1728311;28;20291;-80
2023/08/18 00:07:29;;;;;;;0.00;0.00;;;;;;;;;;1728564;28;20267;-80
2023/08/18 00:08:21;;;;;;;0.00;0.00;;;;;;;;;;1727860;28;20212;-80
2023/08/18 00:09:12;;;;;;;0.00;0.00;;;;;;;;;;1728651;28;20294;-81
2023/08/18 00:10:04;;;;;;;0.00;0.00;;;;;;;;;;1732065;28;20199;-80
2023/08/18 00:10:56;;;;;;;0.00;0.00;;;;;;;;;;1727209;28;21028;-81
2023/08/18 00:11:48;;;;;;;0.00;0.00;;;;;;;;;;1728020;28;20295;-81
2023/08/18 00:12:40;;;;;;;0.00;0.00;;;;;;;;;;1728496;28;20200;-81
2023/08/18 00:13:31;;;;;;;0.00;0.00;;;;;;;;;;1728206;28;20246;-81
2023/08/18 00:14:22;;;;;;;0.00;0.00;;;;;;;;;;1728304;28;20219;-82
2023/08/18 00:15:14;;;;;;;0.00;0.00;;;;;;;;;;1728653;28;20214;-81
2023/08/18 00:16:05;;;;;;;0.00;0.00;;;;;;;;;;1728536;28;20282;-81
2023/08/18 00:16:56;;;;;;;0.00;0.00;;;;;;;;;;1728753;28;20204;-81
2023/08/18 00:17:48;;;;;;;0.00;0.00;;;;;;;;;;1728382;28;20795;-81
2023/08/18 00:18:39;;;;;;;0.00;0.00;;;;;;;;;;1728072;28;20239;-81
2023/08/18 00:19:30;;;;;;;0.00;0.00;;;;;;;;;;1728295;28;20287;-81
2023/08/18 00:20:22;;;;;;;0.00;0.00;;;;;;;;;;1728771;28;20227;-82
2023/08/18 00:21:14;;;;;;;0.00;0.00;;;;;;;;;;1728072;28;20257;-83
2023/08/18 00:22:05;;;;;;;0.00;0.00;;;;;;;;;;1730911;28;20227;-83
2023/08/18 00:22:57;;;;;;;0.00;0.00;;;;;;;;;;1728317;28;20208;-82
2023/08/18 00:23:48;;;;;;;0.00;0.00;;;;;;;;;;1725820;28;20274;-82
2023/08/18 00:24:39;;;;;;;0.00;0.00;;;;;;;;;;1728122;28;20283;-82
2023/08/18 00:25:32;;;;;;;0.00;0.00;;;;;;;;;;1727744;28;20200;-83
2023/08/18 00:26:24;;;;;;;0.00;0.00;;;;;;;;;;1727979;28;20658;-83
2023/08/18 00:27:15;;;;;;;0.00;0.00;;;;;;;;;;1728841;28;20273;-83
2023/08/18 00:28:07;;;;;;;0.00;0.00;;;;;;;;;;1728537;28;20231;-82
2023/08/18 00:28:58;;;;;;;0.00;0.00;;;;;;;;;;1728654;28;20749;-83
2023/08/18 00:29:50;;;;;;;0.00;0.00;;;;;;;;;;1728426;28;20287;-83
2023/08/18 00:30:41;;;;;;;0.00;0.00;;;;;;;;;;1727707;28;20243;-82
2023/08/18 00:31:32;;;;;;;0.00;0.00;;;;;;;;;;1728150;28;20674;-82
2023/08/18 00:32:24;;;;;;;0.00;0.00;;;;;;;;;;1728323;28;20200;-83
2023/08/18 00:33:15;;;;;;;0.00;0.00;;;;;;;;;;1730804;28;20204;-83
2023/08/18 00:34:07;;;;;;;0.00;0.00;;;;;;;;;;1728199;28;20208;-83
2023/08/18 00:34:59;;;;;;;0.00;0.00;;;;;;;;;;1728146;28;20516;-82
2023/08/18 00:35:50;;;;;;;0.00;0.00;;;;;;;;;;1728248;28;20252;-81
2023/08/18 00:36:41;;;;;;;0.00;0.00;;;;;;;;;;1728527;28;20243;-81
2023/08/18 00:37:33;;;;;;;0.00;0.00;;;;;;;;;;1729120;28;20283;-81
2023/08/18 00:38:24;;;;;;;0.00;0.00;;;;;;;;;;1730887;28;20667;-81
2023/08/18 00:39:16;;;;;;;0.00;0.00;;;;;;;;;;1729278;28;20196;-81
2023/08/18 00:40:09;;;;;;;0.00;0.00;;;;;;;;;;1731560;28;20208;-81
2023/08/18 00:41:02;;;;;;;0.00;0.00;;;;;;;;;;1727690;28;20618;-81
2023/08/18 00:41:53;;;;;;;0.00;0.00;;;;;;;;;;1729310;28;20670;-82
2023/08/18 00:42:44;;;;;;;0.00;0.00;;;;;;;;;;1728608;28;20215;-81
2023/08/18 00:43:37;;;;;;;0.00;0.00;;;;;;;;;;1728888;28;20322;-82
2023/08/18 00:44:28;;;;;;;0.00;0.00;;;;;;;;;;1728223;28;20208;-82
2023/08/18 00:45:19;;;;;;;0.00;0.00;;;;;;;;;;1730110;28;20213;-82
2023/08/18 00:46:11;;;;;;;0.00;0.00;;;;;;;;;;1728498;28;20192;-83
2023/08/18 00:47:03;;;;;;;0.00;0.00;;;;;;;;;;1728257;28;20377;-82
2023/08/18 00:47:55;;;;;;;0.00;0.00;;;;;;;;;;1728561;28;20200;-82
2023/08/18 00:48:47;;;;;;;0.00;0.00;;;;;;;;;;1731072;28;20204;-82
2023/08/18 00:49:39;;;;;;;0.00;0.00;;;;;;;;;;1727988;28;20242;-82
2023/08/18 00:50:31;;;;;;;0.00;0.00;;;;;;;;;;1727561;28;20291;-82
2023/08/18 00:51:22;;;;;;;0.00;0.00;;;;;;;;;;1728084;28;20212;-82
2023/08/18 00:52:17;;;;;;;0.00;0.00;;;;;;;;;;1728591;28;20577;-82
2023/08/18 00:53:09;;;;;;;0.00;0.00;;;;;;;;;;1729294;28;20630;-82
2023/08/18 00:54:00;;;;;;;0.00;0.00;;;;;;;;;;1729387;28;20219;-82
2023/08/18 00:54:52;;;;;;;0.00;0.00;;;;;;;;;;1728624;28;20207;-82
2023/08/18 00:55:44;;;;;;;0.00;0.00;;;;;;;;;;1727731;28;20271;-82
2023/08/18 00:56:36;;;;;;;0.00;0.00;;;;;;;;;;1728190;28;20262;-82
2023/08/18 00:57:28;;;;;;;0.00;0.00;;;;;;;;;;1722863;28;20212;-82
2023/08/18 00:58:19;;;;;;;0.00;0.00;;;;;;;;;;1728215;28;20208;-82
2023/08/18 00:59:10;;;;;;;0.00;0.00;;;;;;;;;;1728691;28;20278;-82
2023/08/18 01:00:04;;;;;;;0.00;0.00;;;;;;;;;;1727444;28;20658;-83
2023/08/18 01:00:55;;;;;;;0.00;0.00;;;;;;;;;;1722259;28;20523;-83
2023/08/18 01:01:46;;;;;;;0.00;0.00;;;;;;;;;;1726790;28;20598;-83
2023/08/18 01:02:39;;;;;;;0.00;0.00;;;;;;;;;;1722966;28;20227;-82
2023/08/18 01:03:30;;;;;;;0.00;0.00;;;;;;;;;;1727032;28;20235;-82
2023/08/18 01:04:21;;;;;;;0.00;0.00;;;;;;;;;;1727357;28;20220;-82
2023/08/18 01:05:13;;;;;;;0.00;0.00;;;;;;;;;;1727066;28;20531;-82
2023/08/18 01:06:04;;;;;;;0.00;0.00;;;;;;;;;;1726819;28;20270;-82
2023/08/18 01:06:56;;;;;;;0.00;0.00;;;;;;;;;;1727474;28;20200;-81
2023/08/18 01:07:47;;;;;;;0.00;0.00;;;;;;;;;;1727372;28;20303;-81
2023/08/18 01:08:39;;;;;;;0.00;0.00;;;;;;;;;;1729963;28;20262;-81
2023/08/18 01:09:31;;;;;;;0.00;0.00;;;;;;;;;;1726543;28;20212;-81
2023/08/18 01:10:23;;;;;;;0.00;0.00;;;;;;;;;;1726141;28;20235;-81
2023/08/18 01:11:18;;;;;;;0.00;0.00;;;;;;;;;;1727125;28;20188;-81
2023/08/18 01:12:17;;;;;;;0.00;0.00;;;;;;;;;;1727719;28;20620;-81
2023/08/18 01:13:11;;;;;;;0.00;0.00;;;;;;;;;;1728902;28;20572;-81
2023/08/18 01:14:08;;;;;;;0.00;0.00;;;;;;;;;;1727934;28;20262;-81
2023/08/18 01:15:05;;;;;;;0.00;0.00;;;;;;;;;;1727682;28;20204;-81
2023/08/18 01:15:57;;;;;;;0.00;0.00;;;;;;;;;;1726216;28;20274;-82
2023/08/18 01:16:51;;;;;;;0.00;0.00;;;;;;;;;;1726526;28;20200;-82
2023/08/18 01:17:47;;;;;;;0.00;0.00;;;;;;;;;;1727206;28;20215;-81
2023/08/18 01:18:38;;;;;;;0.00;0.00;;;;;;;;;;1731384;28;20239;-81
2023/08/18 01:19:30;;;;;;;0.00;0.00;;;;;;;;;;1726990;28;20206;-81
2023/08/18 01:20:22;;;;;;;0.00;0.00;;;;;;;;;;1725705;28;20235;-82
2023/08/18 01:21:15;;;;;;;0.00;0.00;;;;;;;;;;1727259;28;20260;-81
2023/08/18 01:22:11;;;;;;;0.00;0.00;;;;;;;;;;1727090;28;20300;-81
2023/08/18 01:23:05;;;;;;;0.00;0.00;;;;;;;;;;1729335;28;20315;-81
2023/08/18 01:23:56;;;;;;;0.00;0.00;;;;;;;;;;1728770;28;20208;-81
2023/08/18 01:24:47;;;;;;;0.00;0.00;;;;;;;;;;1726536;28;20538;-81
2023/08/18 01:25:39;;;;;;;0.00;0.00;;;;;;;;;;1726329;28;20239;-81
2023/08/18 01:26:30;;;;;;;0.00;0.00;;;;;;;;;;1726960;28;20242;-81
2023/08/18 01:27:21;;;;;;;0.00;0.00;;;;;;;;;;1727222;28;20620;-81
2023/08/18 01:28:13;;;;;;;0.00;0.00;;;;;;;;;;1727297;28;20290;-81
2023/08/18 01:29:05;;;;;;;0.00;0.00;;;;;;;;;;1727405;28;20267;-81
2023/08/18 01:29:56;;;;;;;0.00;0.00;;;;;;;;;;1729052;28;20200;-81
2023/08/18 01:30:49;;;;;;;0.00;0.00;;;;;;;;;;1722834;28;20228;-81
2023/08/18 01:31:41;;;;;;;0.00;0.00;;;;;;;;;;1726797;28;20204;-81
2023/08/18 01:32:35;;;;;;;0.00;0.00;;;;;;;;;;1727156;28;20196;-82
2023/08/18 01:33:31;;;;;;;0.00;0.00;;;;;;;;;;1726685;28;20294;-82
2023/08/18 01:34:25;;;;;;;0.00;0.00;;;;;;;;;;1726662;28;20185;-81
2023/08/18 01:35:16;;;;;;;0.00;0.00;;;;;;;;;;1726283;28;20242;-81
2023/08/18 01:36:12;;;;;;;0.00;0.00;;;;;;;;;;1727179;28;20204;-81
2023/08/18 01:37:03;;;;;;;0.00;0.00;;;;;;;;;;1727159;28;20331;-81
2023/08/18 01:37:56;;;;;;;0.00;0.00;;;;;;;;;;1727126;28;20598;-81
2023/08/18 01:38:49;;;;;;;0.00;0.00;;;;;;;;;;1727196;28;20210;-81
2023/08/18 01:39:40;;;;;;;0.00;0.00;;;;;;;;;;1726605;28;20230;-81
2023/08/18 01:40:32;;;;;;;0.00;0.00;;;;;;;;;;1726008;28;20231;-81
2023/08/18 01:41:24;;;;;;;0.00;0.00;;;;;;;;;;1727038;28;20307;-81
2023/08/18 01:42:16;;;;;;;0.00;0.00;;;;;;;;;;1727251;28;21083;-81
2023/08/18 01:43:08;;;;;;;0.00;0.00;;;;;;;;;;1726717;28;20219;-81
2023/08/18 01:44:00;;;;;;;0.00;0.00;;;;;;;;;;1726661;28;20216;-81
2023/08/18 01:44:52;;;;;;;0.00;0.00;;;;;;;;;;1726593;28;20673;-81
2023/08/18 01:45:43;;;;;;;0.00;0.00;;;;;;;;;;1726371;28;20601;-81
2023/08/18 01:46:34;;;;;;;0.00;0.00;;;;;;;;;;1726540;28;20200;-81
2023/08/18 01:47:26;;;;;;;0.00;0.00;;;;;;;;;;1726970;28;20223;-81
2023/08/18 01:48:17;;;;;;;0.00;0.00;;;;;;;;;;1726998;28;20664;-81
2023/08/18 01:49:08;;;;;;;0.00;0.00;;;;;;;;;;1727111;28;20264;-81
2023/08/18 01:50:01;;;;;;;0.00;0.00;;;;;;;;;;1729294;28;20222;-81
2023/08/18 01:50:53;;;;;;;0.00;0.00;;;;;;;;;;1725919;28;20716;-81
2023/08/18 01:51:45;;;;;;;0.00;0.00;;;;;;;;;;1726599;28;20286;-81
2023/08/18 01:52:36;;;;;;;0.00;0.00;;;;;;;;;;1727190;28;20236;-81
2023/08/18 01:53:27;;;;;;;0.00;0.00;;;;;;;;;;1728133;28;20666;-81
2023/08/18 01:54:20;;;;;;;0.00;0.00;;;;;;;;;;1727034;28;20200;-81
2023/08/18 01:55:11;;;;;;;0.00;0.00;;;;;;;;;;1729959;28;20350;-82
2023/08/18 01:56:03;;;;;;;0.00;0.00;;;;;;;;;;1725841;28;20263;-80
2023/08/18 01:56:55;;;;;;;0.00;0.00;;;;;;;;;;1728166;28;20208;-80
2023/08/18 01:57:46;;;;;;;0.00;0.00;;;;;;;;;;1726879;28;20267;-80
2023/08/18 01:58:38;;;;;;;0.00;0.00;;;;;;;;;;1729649;28;20216;-81
2023/08/18 01:59:29;;;;;;;0.00;0.00;;;;;;;;;;1726972;28;20239;-81
2023/08/18 02:00:20;;;;;;;0.00;0.00;;;;;;;;;;1728706;28;20235;-81
2023/08/18 02:01:12;;;;;;;0.00;0.00;;;;;;;;;;1723982;28;20631;-81
2023/08/18 02:02:03;;;;;;;0.00;0.00;;;;;;;;;;1725000;28;20247;-81
2023/08/18 02:02:54;;;;;;;0.00;0.00;;;;;;;;;;1724558;28;20476;-81
2023/08/18 02:03:46;;;;;;;0.00;0.00;;;;;;;;;;1729438;28;20319;-81
2023/08/18 02:04:37;;;;;;;0.00;0.00;;;;;;;;;;1727272;28;20351;-81
2023/08/18 02:05:28;;;;;;;0.00;0.00;;;;;;;;;;1723826;28;20536;-81
2023/08/18 02:06:20;;;;;;;0.00;0.00;;;;;;;;;;1727520;28;20219;-81
2023/08/18 02:07:11;;;;;;;0.00;0.00;;;;;;;;;;1727784;28;20208;-81
2023/08/18 02:08:03;;;;;;;0.00;0.00;;;;;;;;;;1727265;28;20208;-81
2023/08/18 02:08:55;;;;;;;0.00;0.00;;;;;;;;;;1728775;28;20215;-82
2023/08/18 02:09:48;;;;;;;0.00;0.00;;;;;;;;;;1728315;28;20212;-81
2023/08/18 02:10:39;;;;;;;0.00;0.00;;;;;;;;;;1727246;28;20595;-81
2023/08/18 02:11:31;;;;;;;0.00;0.00;;;;;;;;;;1727835;28;20223;-81
2023/08/18 02:12:22;;;;;;;0.00;0.00;;;;;;;;;;1727051;28;20247;-81
2023/08/18 02:13:14;;;;;;;0.00;0.00;;;;;;;;;;1725774;28;20268;-81
2023/08/18 02:14:06;;;;;;;0.00;0.00;;;;;;;;;;1723748;28;20513;-81
2023/08/18 02:14:57;;;;;;;0.00;0.00;;;;;;;;;;1729665;28;20623;-81
2023/08/18 02:15:49;;;;;;;0.00;0.00;;;;;;;;;;1726102;28;20248;-81
2023/08/18 02:16:41;;;;;;;0.00;0.00;;;;;;;;;;1726626;28;20213;-81
2023/08/18 02:17:33;;;;;;;0.00;0.00;;;;;;;;;;1727323;28;20210;-81
2023/08/18 02:18:24;;;;;;;0.00;0.00;;;;;;;;;;1721509;28;20308;-81
2023/08/18 02:19:16;;;;;;;0.00;0.00;;;;;;;;;;1725205;28;20250;-81
2023/08/18 02:20:08;;;;;;;0.00;0.00;;;;;;;;;;1730062;28;20238;-81
2023/08/18 02:21:00;;;;;;;0.00;0.00;;;;;;;;;;1725772;28;20238;-81
2023/08/18 02:21:52;;;;;;;0.00;0.00;;;;;;;;;;1727785;28;20646;-81
2023/08/18 02:22:43;;;;;;;0.00;0.00;;;;;;;;;;1726928;28;20325;-81
2023/08/18 02:23:34;;;;;;;0.00;0.00;;;;;;;;;;1730018;28;20217;-81
2023/08/18 02:24:26;;;;;;;0.00;0.00;;;;;;;;;;1726881;28;20359;-81
2023/08/18 02:25:21;;;;;;;0.00;0.00;;;;;;;;;;1728755;28;20768;-81
2023/08/18 02:26:13;;;;;;;0.00;0.00;;;;;;;;;;1727291;28;20208;-81
2023/08/18 02:27:04;;;;;;;0.00;0.00;;;;;;;;;;1728158;28;20231;-81
2023/08/18 02:27:55;;;;;;;0.00;0.00;;;;;;;;;;1727032;28;20207;-80
2023/08/18 02:28:47;;;;;;;0.00;0.00;;;;;;;;;;1729423;28;20286;-81
2023/08/18 02:29:38;;;;;;;0.00;0.00;;;;;;;;;;1727095;28;20235;-81
2023/08/18 02:30:29;;;;;;;0.00;0.00;;;;;;;;;;1728317;28;20573;-80
2023/08/18 02:31:21;;;;;;;0.00;0.00;;;;;;;;;;1727249;28;20717;-80
2023/08/18 02:32:12;;;;;;;0.00;0.00;;;;;;;;;;1727903;28;20279;-81
2023/08/18 02:33:03;;;;;;;0.00;0.00;;;;;;;;;;1727605;28;20323;-81
2023/08/18 02:33:55;;;;;;;0.00;0.00;;;;;;;;;;1728688;28;20207;-81
2023/08/18 02:34:46;;;;;;;0.00;0.00;;;;;;;;;;1727804;28;20200;-81
2023/08/18 02:35:38;;;;;;;0.00;0.00;;;;;;;;;;1727624;28;20235;-81
2023/08/18 02:36:29;;;;;;;0.00;0.00;;;;;;;;;;1728421;28;20228;-81
2023/08/18 02:37:21;;;;;;;0.00;0.00;;;;;;;;;;1727664;28;20367;-81
2023/08/18 02:38:15;;;;;;;0.00;0.00;;;;;;;;;;1729167;28;20204;-81
2023/08/18 02:39:06;;;;;;;0.00;0.00;;;;;;;;;;1727343;28;20237;-81
2023/08/18 02:39:58;;;;;;;0.00;0.00;;;;;;;;;;1729385;28;20207;-80
2023/08/18 02:40:52;;;;;;;0.00;0.00;;;;;;;;;;1727180;28;20785;-81
2023/08/18 02:41:43;;;;;;;0.00;0.00;;;;;;;;;;1729812;28;20200;-81
2023/08/18 02:42:35;;;;;;;0.00;0.00;;;;;;;;;;1727838;28;20215;-81
2023/08/18 02:43:26;;;;;;;0.00;0.00;;;;;;;;;;1729619;28;20214;-81
2023/08/18 02:44:17;;;;;;;0.00;0.00;;;;;;;;;;1727137;28;20208;-81
2023/08/18 02:45:09;;;;;;;0.00;0.00;;;;;;;;;;1729366;28;20204;-80
2023/08/18 02:46:01;;;;;;;0.00;0.00;;;;;;;;;;1725857;28;20702;-81
2023/08/18 02:46:52;;;;;;;0.00;0.00;;;;;;;;;;1727070;28;20625;-81
2023/08/18 02:47:44;;;;;;;0.00;0.00;;;;;;;;;;1726630;28;20250;-81
2023/08/18 02:48:35;;;;;;;0.00;0.00;;;;;;;;;;1729473;28;20204;-81
2023/08/18 02:49:27;;;;;;;0.00;0.00;;;;;;;;;;1727016;28;20204;-81
2023/08/18 02:50:18;;;;;;;0.00;0.00;;;;;;;;;;1728528;28;20208;-80
2023/08/18 02:51:10;;;;;;;0.00;0.00;;;;;;;;;;1727392;28;20551;-80
2023/08/18 02:52:02;;;;;;;0.00;0.00;;;;;;;;;;1727477;28;20584;-80
2023/08/18 02:52:53;;;;;;;0.00;0.00;;;;;;;;;;1727025;28;20857;-81
2023/08/18 02:53:48;;;;;;;0.00;0.00;;;;;;;;;;1725970;28;20407;-81
2023/08/18 02:54:39;;;;;;;0.00;0.00;;;;;;;;;;1724478;28;20197;-81
2023/08/18 02:55:30;;;;;;;0.00;0.00;;;;;;;;;;1726364;28;20228;-81
2023/08/18 02:56:24;;;;;;;0.00;0.00;;;;;;;;;;1726881;28;20210;-82
2023/08/18 02:57:15;;;;;;;0.00;0.00;;;;;;;;;;1726977;28;20259;-82
2023/08/18 02:58:06;;;;;;;0.00;0.00;;;;;;;;;;1726195;28;20663;-81
2023/08/18 02:58:58;;;;;;;0.00;0.00;;;;;;;;;;1726983;28;20232;-81
2023/08/18 02:59:49;;;;;;;0.00;0.00;;;;;;;;;;1725958;28;20627;-81
2023/08/18 03:00:41;;;;;;;0.00;0.00;;;;;;;;;;1725115;28;20262;-81
2023/08/18 03:01:32;;;;;;;0.00;0.00;;;;;;;;;;1724470;28;20230;-81
2023/08/18 03:02:24;;;;;;;0.00;0.00;;;;;;;;;;1726432;28;20196;-81
2023/08/18 03:03:15;;;;;;;0.00;0.00;;;;;;;;;;1726219;28;20553;-81
2023/08/18 03:04:06;;;;;;;0.00;0.00;;;;;;;;;;1726405;28;20258;-81
2023/08/18 03:04:58;;;;;;;0.00;0.00;;;;;;;;;;1726480;28;20224;-81
2023/08/18 03:05:50;;;;;;;0.00;0.00;;;;;;;;;;1726234;28;20302;-81
2023/08/18 03:06:42;;;;;;;0.00;0.00;;;;;;;;;;1726379;28;20600;-81
2023/08/18 03:07:33;;;;;;;0.00;0.00;;;;;;;;;;1726443;28;20624;-80
2023/08/18 03:08:24;;;;;;;0.00;0.00;;;;;;;;;;1725871;28;20344;-80
2023/08/18 03:09:16;;;;;;;0.00;0.00;;;;;;;;;;1726310;28;20208;-81
2023/08/18 03:10:08;;;;;;;0.00;0.00;;;;;;;;;;1728956;28;20203;-81
2023/08/18 03:11:01;;;;;;;0.00;0.00;;;;;;;;;;1725063;28;20247;-81
2023/08/18 03:11:53;;;;;;;0.00;0.00;;;;;;;;;;1726140;28;20204;-81
2023/08/18 03:12:45;;;;;;;0.00;0.00;;;;;;;;;;1726190;28;20653;-81
2023/08/18 03:13:36;;;;;;;0.00;0.00;;;;;;;;;;1726145;28;20250;-81
2023/08/18 03:14:28;;;;;;;0.00;0.00;;;;;;;;;;1725958;28;20200;-81
2023/08/18 03:15:19;;;;;;;0.00;0.00;;;;;;;;;;1725168;28;20302;-81
2023/08/18 03:16:10;;;;;;;0.00;0.00;;;;;;;;;;1726095;28;20204;-81
2023/08/18 03:17:02;;;;;;;0.00;0.00;;;;;;;;;;1725902;28;20204;-81
2023/08/18 03:17:53;;;;;;;0.00;0.00;;;;;;;;;;1726296;28;20299;-81
2023/08/18 03:18:46;;;;;;;0.00;0.00;;;;;;;;;;1726351;28;20208;-81
2023/08/18 03:19:37;;;;;;;0.00;0.00;;;;;;;;;;1725978;28;20723;-81
2023/08/18 03:20:29;;;;;;;0.00;0.00;;;;;;;;;;1724329;28;20612;-81
2023/08/18 03:21:20;;;;;;;0.00;0.00;;;;;;;;;;1727819;28;20619;-82
2023/08/18 03:22:12;;;;;;;0.00;0.00;;;;;;;;;;1727433;28;20208;-81
2023/08/18 03:23:03;;;;;;;0.00;0.00;;;;;;;;;;1725651;28;20262;-81
2023/08/18 03:23:55;;;;;;;0.00;0.00;;;;;;;;;;1725630;28;20204;-81
2023/08/18 03:24:46;;;;;;;0.00;0.00;;;;;;;;;;1726230;28;20250;-81
2023/08/18 03:25:37;;;;;;;0.00;0.00;;;;;;;;;;1725395;28;20744;-81
2023/08/18 03:26:29;;;;;;;0.00;0.00;;;;;;;;;;1725751;28;20350;-81
2023/08/18 03:27:21;;;;;;;0.00;0.00;;;;;;;;;;1726172;28;20266;-81
2023/08/18 03:28:12;;;;;;;0.00;0.00;;;;;;;;;;1727922;28;20208;-81
2023/08/18 03:29:04;;;;;;;0.00;0.00;;;;;;;;;;1726429;28;20208;-81
2023/08/18 03:29:56;;;;;;;0.00;0.00;;;;;;;;;;1725775;28;20242;-81
2023/08/18 03:30:47;;;;;;;0.00;0.00;;;;;;;;;;1720925;28;20243;-81
2023/08/18 03:31:39;;;;;;;0.00;0.00;;;;;;;;;;1725532;28;20298;-81
2023/08/18 03:32:30;;;;;;;0.00;0.00;;;;;;;;;;1726403;28;20364;-81
2023/08/18 03:33:21;;;;;;;0.00;0.00;;;;;;;;;;1725509;28;20223;-81
2023/08/18 03:34:13;;;;;;;0.00;0.00;;;;;;;;;;1725910;28;20214;-81
2023/08/18 03:35:04;;;;;;;0.00;0.00;;;;;;;;;;1728341;28;20239;-81
2023/08/18 03:35:57;;;;;;;0.00;0.00;;;;;;;;;;1725173;28;20662;-82
2023/08/18 03:36:48;;;;;;;0.00;0.00;;;;;;;;;;1725589;28;20645;-82
2023/08/18 03:37:40;;;;;;;0.00;0.00;;;;;;;;;;1726003;28;20196;-82
2023/08/18 03:38:31;;;;;;;0.00;0.00;;;;;;;;;;1728896;28;20286;-81
2023/08/18 03:39:23;;;;;;;0.00;0.00;;;;;;;;;;1726407;28;20666;-81
2023/08/18 03:40:14;;;;;;;0.00;0.00;;;;;;;;;;1725884;28;20248;-82
2023/08/18 03:41:07;;;;;;;0.00;0.00;;;;;;;;;;1725851;28;20224;-82
2023/08/18 03:41:58;;;;;;;0.00;0.00;;;;;;;;;;1725956;28;20231;-81
2023/08/18 03:42:50;;;;;;;0.00;0.00;;;;;;;;;;1726373;28;20257;-81
2023/08/18 03:43:42;;;;;;;0.00;0.00;;;;;;;;;;1725145;28;20200;-81
2023/08/18 03:44:33;;;;;;;0.00;0.00;;;;;;;;;;1726682;28;20231;-82
2023/08/18 03:45:24;;;;;;;0.00;0.00;;;;;;;;;;1725225;28;20227;-82
2023/08/18 03:46:22;;;;;;;0.00;0.00;;;;;;;;;;1726770;28;20209;-82
2023/08/18 03:47:13;;;;;;;0.00;0.00;;;;;;;;;;1725349;28;20564;-81
2023/08/18 03:48:05;;;;;;;0.00;0.00;;;;;;;;;;1727614;28;20694;-81
2023/08/18 03:48:57;;;;;;;0.00;0.00;;;;;;;;;;1727937;28;20200;-81
2023/08/18 03:49:49;;;;;;;0.00;0.00;;;;;;;;;;1725757;28;20232;-82
2023/08/18 03:50:40;;;;;;;0.00;0.00;;;;;;;;;;1725691;28;20271;-81
2023/08/18 03:51:32;;;;;;;0.00;0.00;;;;;;;;;;1727421;28;20212;-81
2023/08/18 03:52:23;;;;;;;0.00;0.00;;;;;;;;;;1726354;28;20659;-81
2023/08/18 03:53:15;;;;;;;0.00;0.00;;;;;;;;;;1725994;28;20250;-82
2023/08/18 03:54:06;;;;;;;0.00;0.00;;;;;;;;;;1727931;28;20215;-82
2023/08/18 03:54:57;;;;;;;0.00;0.00;;;;;;;;;;1735310;28;20625;-82
2023/08/18 03:55:51;;;;;;;0.00;0.00;;;;;;;;;;1732554;28;20235;-82
2023/08/18 03:56:42;;;;;;;0.00;0.00;;;;;;;;;;1733393;28;20535;-82
2023/08/18 03:57:34;;;;;;;0.00;0.00;;;;;;;;;;1733612;28;20234;-82
2023/08/18 03:58:26;;;;;;;0.00;0.00;;;;;;;;;;1732596;28;20242;-81
2023/08/18 03:59:17;;;;;;;0.00;0.00;;;;;;;;;;1733559;28;20284;-81
2023/08/18 04:00:10;;;;;;;0.00;0.00;;;;;;;;;;1732978;28;20611;-81
2023/08/18 04:01:01;;;;;;;0.00;0.00;;;;;;;;;;1729410;28;20243;-82
2023/08/18 04:01:52;;;;;;;0.00;0.00;;;;;;;;;;1734734;28;20202;-82
2023/08/18 04:02:44;;;;;;;0.00;0.00;;;;;;;;;;1727910;28;20208;-82
2023/08/18 04:03:36;;;;;;;0.00;0.00;;;;;;;;;;1732994;28;20239;-82
2023/08/18 04:04:27;;;;;;;0.00;0.00;;;;;;;;;;1733591;28;20210;-82
2023/08/18 04:05:19;;;;;;;0.00;0.00;;;;;;;;;;1732349;28;20609;-82
2023/08/18 04:06:12;;;;;;;0.00;0.00;;;;;;;;;;1733307;28;20218;-81
2023/08/18 04:07:04;;;;;;;0.00;0.00;;;;;;;;;;1729579;28;20204;-82
2023/08/18 04:07:55;;;;;;;0.00;0.00;;;;;;;;;;1731774;28;20262;-82
2023/08/18 04:08:47;;;;;;;0.00;0.00;;;;;;;;;;1733569;28;20214;-81
2023/08/18 04:09:39;;;;;;;0.00;0.00;;;;;;;;;;1733199;28;20207;-82
2023/08/18 04:10:30;;;;;;;0.00;0.00;;;;;;;;;;1733436;28;20203;-82
2023/08/18 04:11:21;;;;;;;0.00;0.00;;;;;;;;;;1732348;28;20219;-82
2023/08/18 04:12:13;;;;;;;0.00;0.00;;;;;;;;;;1733265;28;20558;-81
2023/08/18 04:13:04;;;;;;;0.00;0.00;;;;;;;;;;1732494;28;20203;-82
2023/08/18 04:13:56;;;;;;;0.00;0.00;;;;;;;;;;1733026;28;20208;-82
2023/08/18 04:14:49;;;;;;;0.00;0.00;;;;;;;;;;1732449;28;20208;-82
2023/08/18 04:15:41;;;;;;;0.00;0.00;;;;;;;;;;1731140;28;20311;-81
2023/08/18 04:16:33;;;;;;;0.00;0.00;;;;;;;;;;1726397;28;20577;-81
2023/08/18 04:17:24;;;;;;;0.00;0.00;;;;;;;;;;1738663;28;20589;-81
2023/08/18 04:18:15;;;;;;;0.00;0.00;;;;;;;;;;1736126;28;20228;-81
2023/08/18 04:19:07;;;;;;;0.00;0.00;;;;;;;;;;1730971;28;20203;-82
2023/08/18 04:19:58;;;;;;;0.00;0.00;;;;;;;;;;1735318;28;20405;-81
2023/08/18 04:20:49;;;;;;;0.00;0.00;;;;;;;;;;1732527;28;20263;-81
2023/08/18 04:21:41;;;;;;;0.00;0.00;;;;;;;;;;1735423;28;20648;-81
2023/08/18 04:22:32;;;;;;;0.00;0.00;;;;;;;;;;1733064;28;20405;-81
2023/08/18 04:23:23;;;;;;;0.00;0.00;;;;;;;;;;1736151;28;20199;-81
2023/08/18 04:24:15;;;;;;;0.00;0.00;;;;;;;;;;1733094;28;20207;-80
2023/08/18 04:25:07;;;;;;;0.00;0.00;;;;;;;;;;1732623;28;20254;-79
2023/08/18 04:25:58;;;;;;;0.00;0.00;;;;;;;;;;1731611;28;20258;-80
2023/08/18 04:26:58;;;;;;;0.00;0.00;;;;;;;;;;1731951;28;20296;-81
2023/08/18 04:27:49;;;;;;;0.00;0.00;;;;;;;;;;1733884;28;20230;-80
2023/08/18 04:28:41;;;;;;;0.00;0.00;;;;;;;;;;1732503;28;20556;-80
2023/08/18 04:29:33;;;;;;;0.00;0.00;;;;;;;;;;1733646;28;20235;-80
2023/08/18 04:30:25;;;;;;;0.00;0.00;;;;;;;;;;1732934;28;20671;-81
2023/08/18 04:31:16;;;;;;;0.00;0.00;;;;;;;;;;1733865;28;20588;-80
2023/08/18 04:32:08;;;;;;;0.00;0.00;;;;;;;;;;1733464;28;20238;-80
2023/08/18 04:32:59;;;;;;;0.00;0.00;;;;;;;;;;1734497;28;20238;-80
2023/08/18 04:33:51;;;;;;;0.00;0.00;;;;;;;;;;1737146;28;20199;-80
2023/08/18 04:34:44;;;;;;;0.00;0.00;;;;;;;;;;1734620;28;20638;-80
2023/08/18 04:35:35;;;;;;;0.00;0.00;;;;;;;;;;1735229;28;20689;-80
2023/08/18 04:36:27;;;;;;;0.00;0.00;;;;;;;;;;1735827;28;20203;-80
2023/08/18 04:37:19;;;;;;;0.00;0.00;;;;;;;;;;1735779;28;20250;-80
2023/08/18 04:38:11;;;;;;;0.00;0.00;;;;;;;;;;1736901;28;20542;-80
2023/08/18 04:39:03;;;;;;;0.00;0.00;;;;;;;;;;1738289;28;20208;-81
2023/08/18 04:39:54;;;;;;;0.00;0.00;;;;;;;;;;1734081;28;20515;-80
2023/08/18 04:40:45;;;;;;;0.00;0.00;;;;;;;;;;1733700;28;20330;-80
2023/08/18 04:41:37;;;;;;;0.00;0.00;;;;;;;;;;1735985;28;20199;-80
2023/08/18 04:42:28;;;;;;;0.00;0.00;;;;;;;;;;1734719;28;20310;-80
2023/08/18 04:43:19;;;;;;;0.00;0.00;;;;;;;;;;1734681;28;20207;-80
2023/08/18 04:44:11;;;;;;;0.00;0.00;;;;;;;;;;1734634;28;20209;-80
2023/08/18 04:45:04;;;;;;;0.00;0.00;;;;;;;;;;1735382;28;20250;-80
2023/08/18 04:45:56;;;;;;;0.00;0.00;;;;;;;;;;1733553;28;20692;-80
2023/08/18 04:46:48;;;;;;;0.00;0.00;;;;;;;;;;1734885;28;20242;-80
2023/08/18 04:47:40;;;;;;;0.00;0.00;;;;;;;;;;1734547;28;20267;-80
2023/08/18 04:48:31;;;;;;;0.00;0.00;;;;;;;;;;1736940;28;20194;-80
2023/08/18 04:49:23;;;;;;;0.00;0.00;;;;;;;;;;1734528;28;20203;-80
2023/08/18 04:50:14;;;;;;;0.00;0.00;;;;;;;;;;1734592;28;20574;-81
2023/08/18 04:51:06;;;;;;;0.00;0.00;;;;;;;;;;1733686;28;20251;-80
2023/08/18 04:51:57;;;;;;;0.00;0.00;;;;;;;;;;1733735;28;20216;-80
2023/08/18 04:52:49;;;;;;;0.00;0.00;;;;;;;;;;1733936;28;20682;-80
2023/08/18 04:53:40;;;;;;;0.00;0.00;;;;;;;;;;1731215;28;20255;-80
2023/08/18 04:54:31;;;;;;;0.00;0.00;;;;;;;;;;1728239;28;20231;-80
2023/08/18 04:55:23;;;;;;;0.00;0.00;;;;;;;;;;1729267;28;20184;-80
2023/08/18 04:56:15;;;;;;;0.00;0.00;;;;;;;;;;1728340;28;20284;-80
2023/08/18 04:57:07;;;;;;;0.00;0.00;;;;;;;;;;1730316;28;20212;-80
2023/08/18 04:57:58;;;;;;;0.00;0.00;;;;;;;;;;1728466;28;20204;-80
2023/08/18 04:58:50;;;;;;;0.00;0.00;;;;;;;;;;1730583;28;20541;-80
2023/08/18 04:59:41;;;;;;;0.00;0.00;;;;;;;;;;1728740;28;20228;-80
2023/08/18 05:00:34;;;;;;;0.00;0.00;;;;;;;;;;1729106;28;20266;-80
2023/08/18 05:01:26;;;;;;;0.00;0.00;;;;;;;;;;1728479;28;20320;-80
2023/08/18 05:02:17;;;;;;;0.00;0.00;;;;;;;;;;1729383;28;20211;-80
2023/08/18 05:03:09;;;;;;;0.00;0.00;;;;;;;;;;1724675;28;20224;-80
2023/08/18 05:04:00;;;;;;;0.00;0.00;;;;;;;;;;1723927;28;20678;-80
2023/08/18 05:04:53;;;;;;;0.00;0.00;;;;;;;;;;1729866;28;20203;-80
2023/08/18 05:05:57;;;;;;;0.00;0.00;;;;;;;;;;1727126;28;20247;-81
2023/08/18 05:06:49;;;;;;;0.00;0.00;;;;;;;;;;1730770;28;20216;-81
2023/08/18 05:07:40;;;;;;;0.00;0.00;;;;;;;;;;1727464;28;20232;-80
2023/08/18 05:08:31;;;;;;;0.00;0.00;;;;;;;;;;1731557;28;20203;-80
2023/08/18 05:09:25;;;;;;;0.00;0.00;;;;;;;;;;1728123;28;20207;-80
2023/08/18 05:10:16;;;;;;;0.00;0.00;;;;;;;;;;1729970;28;20586;-80
2023/08/18 05:11:09;;;;;;;0.00;0.00;;;;;;;;;;1727821;28;20211;-80